Time;durP1;ratioP1;P1;durP2;ratioP2;P2;SDS_P1;SDS_P2;PMS_P1;PMS_P2;Temp;Humidity;BMP_temperature;BMP_pressure;BME280_temperature;BME280_humidity;BME280_pressure;Samples;Min_cycle;Max_cycle;Signal;HPM_P1;HPM_P2
2021/10/31 00:01:46;;;;;;;22.67;19.70;;;12.10;99.90;;;;;;5097727;28;20457;-70
2021/10/31 00:04:13;;;;;;;23.00;18.30;;;12.10;99.90;;;;;;5097974;28;20462;-69
2021/10/31 00:06:39;;;;;;;23.40;19.73;;;12.00;99.90;;;;;;5097311;28;20491;-70
2021/10/31 00:09:07;;;;;;;23.93;18.77;;;12.00;99.90;;;;;;5097818;28;20461;-70
2021/10/31 00:11:34;;;;;;;22.60;18.60;;;12.00;99.90;;;;;;5097380;28;20467;-70
2021/10/31 00:14:02;;;;;;;23.40;18.60;;;12.00;99.90;;;;;;5097533;28;20498;-70
2021/10/31 00:16:29;;;;;;;23.50;18.50;;;12.00;99.90;;;;;;5097796;28;20459;-69
2021/10/31 00:18:56;;;;;;;22.70;18.03;;;12.00;99.90;;;;;;5097270;28;20457;-69
2021/10/31 00:21:25;;;;;;;22.43;17.40;;;12.00;99.90;;;;;;5097439;28;20544;-70
2021/10/31 00:23:52;;;;;;;25.20;18.17;;;12.10;99.90;;;;;;5097214;28;20858;-70
2021/10/31 00:26:18;;;;;;;24.53;19.10;;;12.10;99.90;;;;;;5097555;28;20779;-70
2021/10/31 00:28:45;;;;;;;24.20;18.63;;;12.10;99.90;;;;;;5097194;28;20459;-69
2021/10/31 00:31:13;;;;;;;25.50;18.97;;;12.10;99.90;;;;;;5097052;28;20819;-69
2021/10/31 00:33:40;;;;;;;25.03;18.50;;;12.10;99.90;;;;;;5097527;28;20456;-70
2021/10/31 00:36:07;;;;;;;25.30;18.80;;;12.20;99.90;;;;;;5097275;28;20452;-70
2021/10/31 00:38:33;;;;;;;22.50;18.60;;;12.20;99.90;;;;;;5096936;28;20499;-70
2021/10/31 00:41:01;;;;;;;26.37;19.30;;;12.20;99.90;;;;;;5096856;28;20446;-70
2021/10/31 00:43:28;;;;;;;25.77;19.10;;;12.20;99.90;;;;;;5096862;28;20523;-70
2021/10/31 00:45:55;;;;;;;24.57;19.17;;;12.10;99.90;;;;;;5097115;28;20480;-69
2021/10/31 00:48:23;;;;;;;23.23;19.00;;;12.10;99.90;;;;;;5097014;28;20461;-68
2021/10/31 00:50:51;;;;;;;22.00;18.07;;;12.10;99.90;;;;;;5096761;28;20468;-69
2021/10/31 00:53:18;;;;;;;19.83;17.67;;;12.10;99.90;;;;;;5097311;28;20763;-68
2021/10/31 00:55:45;;;;;;;23.03;18.30;;;12.10;99.90;;;;;;5098605;28;20488;-68
2021/10/31 00:58:12;;;;;;;24.80;18.20;;;12.10;99.90;;;;;;5098562;28;20484;-69
2021/10/31 01:00:40;;;;;;;22.37;17.40;;;12.10;99.90;;;;;;5097831;28;20460;-69
2021/10/31 01:03:06;;;;;;;19.67;16.73;;;12.10;99.90;;;;;;5098424;28;20918;-69
2021/10/31 01:05:41;;;;;;;23.70;17.87;;;12.10;99.90;;;;;;5098834;28;20484;-69
2021/10/31 01:08:36;;;;;;;23.77;17.77;;;12.20;99.90;;;;;;5101877;28;20450;-69
2021/10/31 01:11:22;;;;;;;23.13;18.73;;;12.20;99.90;;;;;;5094779;28;20462;-69
2021/10/31 01:14:21;;;;;;;24.70;19.40;;;12.30;99.90;;;;;;5093538;28;20470;-69
2021/10/31 01:16:58;;;;;;;22.20;18.10;;;12.30;99.90;;;;;;5096418;28;20821;-69
2021/10/31 01:19:45;;;;;;;20.93;18.60;;;12.30;99.90;;;;;;5096753;28;20440;-69
2021/10/31 01:22:31;;;;;;;22.03;16.10;;;12.30;99.90;;;;;;5096272;28;20503;-69
2021/10/31 01:25:11;;;;;;;21.97;18.17;;;12.20;99.90;;;;;;5096379;28;20450;-69
2021/10/31 01:27:51;;;;;;;22.60;18.13;;;12.30;99.90;;;;;;5095869;28;20441;-69
2021/10/31 01:30:25;;;;;;;20.70;17.13;;;12.30;99.90;;;;;;5096274;28;20455;-69
2021/10/31 01:33:02;;;;;;;21.30;17.63;;;12.30;99.90;;;;;;5096232;28;20476;-69
2021/10/31 01:35:40;;;;;;;18.90;16.67;;;12.30;99.90;;;;;;5096643;28;20433;-69
2021/10/31 01:38:19;;;;;;;18.27;15.60;;;12.20;99.90;;;;;;5096218;28;20450;-69
2021/10/31 01:40:50;;;;;;;22.10;16.57;;;12.20;99.90;;;;;;5096027;28;20441;-69
2021/10/31 01:43:28;;;;;;;21.90;17.07;;;12.20;99.90;;;;;;5096068;28;20446;-69
2021/10/31 01:46:06;;;;;;;20.40;16.57;;;12.30;99.90;;;;;;5096038;28;20547;-69
2021/10/31 01:48:43;;;;;;;26.63;17.50;;;12.30;99.90;;;;;;5096446;28;20957;-69
2021/10/31 01:51:17;;;;;;;20.00;17.20;;;12.30;99.90;;;;;;5095434;28;20898;-69
2021/10/31 01:53:52;;;;;;;19.33;16.27;;;12.30;99.90;;;;;;5096350;28;20445;-69
2021/10/31 01:56:21;;;;;;;20.80;17.13;;;12.20;99.90;;;;;;5096131;28;20474;-69
2021/10/31 01:58:52;;;;;;;18.53;15.67;;;12.10;99.90;;;;;;5095484;28;20465;-69
2021/10/31 02:01:21;;;;;;;22.50;17.77;;;12.10;99.90;;;;;;5095480;28;20442;-69
2021/10/31 02:03:50;;;;;;;20.93;16.10;;;12.10;99.90;;;;;;5095716;28;20469;-69
2021/10/31 02:06:18;;;;;;;21.13;17.17;;;12.10;99.90;;;;;;5095365;28;20530;-69
2021/10/31 02:08:47;;;;;;;18.10;15.83;;;12.10;99.90;;;;;;5096197;28;20468;-69
2021/10/31 02:11:16;;;;;;;20.80;15.83;;;12.00;99.90;;;;;;5095323;28;20472;-69
2021/10/31 02:13:46;;;;;;;20.90;14.90;;;12.00;99.90;;;;;;5095623;28;20472;-69
2021/10/31 02:16:16;;;;;;;17.27;14.60;;;12.00;99.90;;;;;;5095355;28;20524;-69
2021/10/31 02:18:44;;;;;;;19.40;15.23;;;12.00;99.90;;;;;;5094368;28;20932;-69
2021/10/31 02:21:11;;;;;;;19.43;16.00;;;12.00;99.90;;;;;;5095749;28;20572;-69
2021/10/31 02:23:40;;;;;;;19.00;16.77;;;12.00;99.90;;;;;;5095215;28;20796;-69
2021/10/31 02:26:06;;;;;;;19.93;15.43;;;12.00;99.90;;;;;;5095533;28;20484;-69
2021/10/31 02:28:37;;;;;;;17.10;15.07;;;12.00;99.90;;;;;;5094793;28;20458;-69
2021/10/31 02:31:04;;;;;;;17.47;14.63;;;12.00;99.90;;;;;;5094925;28;20442;-69
2021/10/31 02:33:30;;;;;;;17.30;14.60;;;12.00;99.90;;;;;;5094944;28;20494;-69
2021/10/31 02:35:58;;;;;;;19.23;15.67;;;12.00;99.90;;;;;;5094836;28;20790;-69
2021/10/31 02:38:25;;;;;;;18.37;14.30;;;12.00;99.90;;;;;;5094876;28;20454;-69
2021/10/31 02:40:53;;;;;;;19.67;15.27;;;12.00;99.90;;;;;;5094733;28;20886;-69
2021/10/31 02:43:19;;;;;;;20.13;15.30;;;12.00;99.90;;;;;;5094468;28;20472;-69
2021/10/31 02:45:46;;;;;;;19.57;14.80;;;12.00;99.90;;;;;;5094771;28;20460;-69
2021/10/31 02:48:15;;;;;;;16.73;14.10;;;12.10;99.90;;;;;;5094940;28;20460;-69
2021/10/31 02:50:44;;;;;;;17.30;14.17;;;12.20;99.90;;;;;;5094837;28;20460;-69
2021/10/31 02:53:18;;;;;;;18.80;14.63;;;12.20;99.90;;;;;;5094552;28;20457;-69
2021/10/31 02:55:57;;;;;;;16.30;13.73;;;12.20;99.90;;;;;;5094221;28;20450;-69
2021/10/31 02:58:31;;;;;;;15.43;13.37;;;12.20;99.90;;;;;;5094767;28;20464;-69
2021/10/31 03:01:01;;;;;;;17.80;14.77;;;12.30;99.90;;;;;;5094469;28;20448;-68
2021/10/31 03:03:30;;;;;;;17.57;15.40;;;12.20;99.90;;;;;;5094384;28;20546;-69
2021/10/31 03:05:58;;;;;;;15.47;13.40;;;12.20;99.90;;;;;;5094163;28;20513;-68
2021/10/31 03:08:25;;;;;;;17.43;14.43;;;12.20;99.90;;;;;;5095096;28;20784;-69
2021/10/31 03:10:54;;;;;;;15.53;13.60;;;12.20;99.90;;;;;;5094446;28;20458;-69
2021/10/31 03:13:21;;;;;;;17.40;15.13;;;12.20;99.90;;;;;;5094559;28;20462;-68
2021/10/31 03:15:48;;;;;;;18.70;14.30;;;12.10;99.90;;;;;;5094812;28;20768;-68
2021/10/31 03:18:15;;;;;;;17.93;14.73;;;12.20;99.90;;;;;;5094790;28;20806;-69
2021/10/31 03:20:41;;;;;;;17.97;14.10;;;12.20;99.90;;;;;;5094452;28;20527;-69
2021/10/31 03:23:08;;;;;;;19.73;13.80;;;12.20;99.90;;;;;;5094840;28;20457;-69
2021/10/31 03:25:35;;;;;;;15.73;12.50;;;12.20;99.90;;;;;;5095502;28;20510;-69
2021/10/31 03:28:04;;;;;;;15.03;13.43;;;12.20;99.90;;;;;;5094470;28;20853;-69
2021/10/31 03:30:31;;;;;;;17.47;13.80;;;12.20;99.90;;;;;;5098071;28;20464;-69
2021/10/31 03:32:58;;;;;;;19.20;14.20;;;12.30;99.90;;;;;;5099422;28;20453;-68
2021/10/31 03:35:25;;;;;;;15.60;12.50;;;12.30;99.90;;;;;;5100016;28;20458;-68
2021/10/31 03:37:52;;;;;;;16.67;13.70;;;12.30;99.90;;;;;;5099519;28;20457;-69
2021/10/31 03:40:19;;;;;;;16.13;13.30;;;12.30;99.90;;;;;;5099365;28;20484;-69
2021/10/31 03:42:46;;;;;;;16.53;12.83;;;12.30;99.90;;;;;;5101922;28;20462;-69
2021/10/31 03:45:15;;;;;;;16.03;12.80;;;12.30;99.90;;;;;;5100625;28;20457;-68
2021/10/31 03:47:46;;;;;;;15.63;12.80;;;12.40;99.90;;;;;;5099461;28;20495;-68
2021/10/31 03:50:14;;;;;;;15.80;14.20;;;12.40;99.90;;;;;;5098922;28;20935;-68
2021/10/31 03:52:40;;;;;;;15.43;12.97;;;12.50;99.90;;;;;;5099690;28;20488;-69
2021/10/31 03:55:07;;;;;;;16.47;12.67;;;12.50;99.90;;;;;;5099000;28;20464;-69
2021/10/31 03:57:34;;;;;;;14.20;12.23;;;12.50;99.90;;;;;;5099096;28;20485;-69
2021/10/31 04:00:01;;;;;;;14.90;12.33;;;12.50;99.90;;;;;;5098610;28;20461;-69
2021/10/31 04:02:29;;;;;;;13.60;11.80;;;12.50;99.90;;;;;;5099311;28;20464;-69
2021/10/31 04:04:56;;;;;;;14.23;12.20;;;12.50;99.90;;;;;;5098438;28;20488;-69
2021/10/31 04:07:22;;;;;;;16.67;12.90;;;12.50;99.90;;;;;;5098292;28;20491;-68
2021/10/31 04:09:49;;;;;;;13.77;10.70;;;12.50;99.90;;;;;;5098592;28;20805;-69
2021/10/31 04:12:19;;;;;;;13.10;11.17;;;12.60;99.90;;;;;;5098176;28;20522;-68
2021/10/31 04:14:45;;;;;;;13.93;10.90;;;12.50;99.90;;;;;;5098232;28;20494;-69
2021/10/31 04:17:12;;;;;;;14.40;11.53;;;12.60;99.90;;;;;;5097615;28;20511;-69
2021/10/31 04:19:40;;;;;;;12.80;11.13;;;12.60;99.90;;;;;;5097638;28;20476;-69
2021/10/31 04:22:07;;;;;;;11.50;10.30;;;12.60;99.90;;;;;;5097205;28;20472;-69
2021/10/31 04:24:34;;;;;;;15.50;11.77;;;12.60;99.90;;;;;;5097237;28;20468;-68
2021/10/31 04:27:02;;;;;;;14.33;11.33;;;12.60;99.90;;;;;;5096898;28;20965;-68
2021/10/31 04:29:29;;;;;;;14.50;10.90;;;12.60;99.90;;;;;;5097192;28;20471;-69
2021/10/31 04:31:57;;;;;;;14.63;11.43;;;12.60;99.90;;;;;;5097348;28;20611;-69
2021/10/31 04:34:24;;;;;;;12.63;11.37;;;12.50;99.90;;;;;;5097042;28;20453;-69
2021/10/31 04:36:52;;;;;;;14.67;11.10;;;12.50;99.90;;;;;;5097334;28;20462;-70
2021/10/31 04:39:18;;;;;;;12.00;10.37;;;12.50;99.90;;;;;;5096927;28;20574;-68
2021/10/31 04:41:47;;;;;;;14.80;11.40;;;12.50;99.90;;;;;;5096041;28;20461;-69
2021/10/31 04:44:13;;;;;;;12.23;10.07;;;12.50;99.90;;;;;;5097130;28;20462;-69
2021/10/31 04:46:40;;;;;;;15.23;10.03;;;12.60;99.90;;;;;;5096470;28;20489;-69
2021/10/31 04:49:07;;;;;;;15.30;10.70;;;12.60;99.90;;;;;;5096740;28;20456;-69
2021/10/31 04:51:34;;;;;;;13.10;10.47;;;12.60;99.90;;;;;;5096990;28;20454;-69
2021/10/31 04:54:02;;;;;;;13.73;11.60;;;12.60;99.90;;;;;;5097299;28;20456;-69
2021/10/31 04:56:29;;;;;;;13.40;9.83;;;12.60;99.90;;;;;;5096751;28;20453;-69
2021/10/31 04:58:56;;;;;;;14.10;10.97;;;12.60;99.90;;;;;;5096811;28;20454;-69
2021/10/31 05:01:22;;;;;;;12.43;9.70;;;12.60;99.90;;;;;;5096831;28;20465;-69
2021/10/31 05:03:49;;;;;;;12.10;10.20;;;12.60;99.90;;;;;;5096210;28;20921;-69
2021/10/31 05:06:16;;;;;;;11.87;10.40;;;12.50;99.90;;;;;;5096303;28;20456;-69
2021/10/31 05:08:43;;;;;;;14.33;10.30;;;12.50;99.90;;;;;;5096707;28;20837;-69
2021/10/31 05:11:11;;;;;;;16.30;10.60;;;12.50;99.90;;;;;;5096537;28;20548;-69
2021/10/31 05:13:37;;;;;;;11.83;10.20;;;12.50;99.90;;;;;;5096557;28;20454;-69
2021/10/31 05:16:04;;;;;;;11.77;10.17;;;12.50;99.90;;;;;;5096330;28;20472;-69
2021/10/31 05:18:31;;;;;;;13.50;10.90;;;12.50;99.90;;;;;;5096589;28;20465;-69
2021/10/31 05:21:00;;;;;;;13.77;11.07;;;12.50;99.90;;;;;;5096497;28;20460;-69
2021/10/31 05:23:27;;;;;;;12.00;10.80;;;12.50;99.90;;;;;;5096307;28;20463;-69
2021/10/31 05:25:54;;;;;;;16.80;10.87;;;12.50;99.90;;;;;;5096183;28;20457;-69
2021/10/31 05:28:22;;;;;;;15.17;11.60;;;12.50;99.90;;;;;;5097925;28;20943;-69
2021/10/31 05:30:49;;;;;;;13.70;11.60;;;12.50;99.90;;;;;;5098078;28;20469;-69
2021/10/31 05:33:15;;;;;;;14.17;10.93;;;12.50;99.90;;;;;;5096128;28;20456;-69
2021/10/31 05:35:42;;;;;;;12.80;11.37;;;12.60;99.90;;;;;;5095887;28;20544;-69
2021/10/31 05:38:10;;;;;;;13.17;11.63;;;12.60;99.90;;;;;;5096236;28;20459;-69
2021/10/31 05:40:39;;;;;;;14.70;11.60;;;12.50;99.90;;;;;;5096021;28;20450;-69
2021/10/31 05:43:06;;;;;;;13.40;11.17;;;12.50;99.90;;;;;;5095621;28;20464;-69
2021/10/31 05:45:34;;;;;;;13.33;10.83;;;12.50;99.90;;;;;;5095874;28;20454;-69
2021/10/31 05:48:00;;;;;;;14.60;11.77;;;12.60;99.90;;;;;;5095868;28;20538;-69
2021/10/31 05:50:27;;;;;;;12.80;11.30;;;12.50;99.90;;;;;;5095597;28;20460;-69
2021/10/31 05:52:54;;;;;;;12.87;11.53;;;12.50;99.90;;;;;;5095616;28;20921;-69
2021/10/31 05:55:20;;;;;;;13.67;11.27;;;12.50;99.90;;;;;;5095397;28;20453;-69
2021/10/31 05:57:47;;;;;;;15.73;12.20;;;12.50;99.90;;;;;;5095800;28;20450;-69
2021/10/31 06:00:17;;;;;;;13.57;12.10;;;12.50;99.90;;;;;;5095457;28;20489;-69
2021/10/31 06:02:45;;;;;;;14.17;11.67;;;12.60;99.90;;;;;;5095503;28;20454;-69
2021/10/31 06:05:13;;;;;;;13.40;11.30;;;12.50;99.90;;;;;;5095247;28;20461;-69
2021/10/31 06:07:40;;;;;;;12.13;10.93;;;12.50;99.90;;;;;;5095410;28;20487;-69
2021/10/31 06:10:07;;;;;;;14.30;11.13;;;12.60;99.90;;;;;;5095377;28;20461;-69
2021/10/31 06:12:34;;;;;;;14.30;12.30;;;12.60;99.90;;;;;;5095322;28;20519;-69
2021/10/31 06:15:03;;;;;;;12.60;11.30;;;12.50;99.90;;;;;;5095418;28;20468;-69
2021/10/31 06:17:30;;;;;;;15.90;12.90;;;12.40;99.90;;;;;;5095086;28;20835;-69
2021/10/31 06:19:58;;;;;;;13.57;11.50;;;12.40;99.90;;;;;;5094905;28;20466;-69
2021/10/31 06:22:24;;;;;;;14.90;12.80;;;12.40;99.90;;;;;;5094969;28;20503;-69
2021/10/31 06:24:51;;;;;;;15.10;13.00;;;12.30;99.90;;;;;;5095009;28;20469;-69
2021/10/31 06:27:18;;;;;;;18.17;13.77;;;12.30;99.90;;;;;;5095045;28;20482;-69
2021/10/31 06:29:44;;;;;;;19.20;13.37;;;12.30;99.90;;;;;;5095036;28;20471;-69
2021/10/31 06:32:11;;;;;;;15.50;13.07;;;12.30;99.90;;;;;;5094645;28;20461;-69
2021/10/31 06:34:38;;;;;;;15.77;13.30;;;12.30;99.90;;;;;;5095541;28;20465;-72
2021/10/31 06:37:06;;;;;;;17.60;14.00;;;12.30;99.90;;;;;;5095021;28;20456;-68
2021/10/31 06:39:32;;;;;;;18.13;13.73;;;12.30;99.90;;;;;;5094585;28;20489;-69
2021/10/31 06:42:01;;;;;;;17.17;15.20;;;12.30;99.90;;;;;;5095149;28;20469;-68
2021/10/31 06:44:28;;;;;;;19.27;14.03;;;12.30;99.90;;;;;;5094580;28;20456;-68
2021/10/31 06:46:54;;;;;;;18.93;15.13;;;12.30;99.90;;;;;;5094625;28;20458;-68
2021/10/31 06:49:21;;;;;;;17.13;14.40;;;12.30;99.90;;;;;;5095047;28;20462;-68
2021/10/31 06:51:48;;;;;;;18.23;14.60;;;12.30;99.90;;;;;;5094432;28;20942;-68
2021/10/31 06:54:16;;;;;;;18.93;14.63;;;12.30;99.90;;;;;;5095042;28;20464;-68
2021/10/31 06:56:43;;;;;;;17.10;13.60;;;12.30;99.90;;;;;;5095148;28;20460;-68
2021/10/31 06:59:09;;;;;;;15.07;13.30;;;12.30;99.90;;;;;;5094738;28;20469;-69
2021/10/31 07:01:36;;;;;;;17.80;13.90;;;12.40;99.90;;;;;;5094334;28;20471;-68
2021/10/31 07:04:03;;;;;;;17.30;13.93;;;12.50;99.90;;;;;;5094230;28;20463;-69
2021/10/31 07:06:30;;;;;;;16.07;13.00;;;12.60;99.90;;;;;;5094631;28;20529;-68
2021/10/31 07:08:57;;;;;;;15.40;13.80;;;12.60;99.90;;;;;;5094632;28;20489;-70
2021/10/31 07:11:25;;;;;;;17.53;14.00;;;12.60;99.90;;;;;;5094522;28;20458;-69
2021/10/31 07:13:52;;;;;;;19.13;14.00;;;12.60;99.90;;;;;;5094737;28;20465;-69
2021/10/31 07:16:18;;;;;;;16.13;14.40;;;12.60;99.90;;;;;;5095432;28;20492;-68
2021/10/31 07:18:45;;;;;;;18.87;13.67;;;12.70;99.90;;;;;;5094871;28;20457;-69
2021/10/31 07:21:12;;;;;;;16.30;13.57;;;12.80;99.90;;;;;;5094334;28;20460;-68
2021/10/31 07:23:39;;;;;;;17.33;13.40;;;12.80;99.90;;;;;;5094893;28;20515;-69
2021/10/31 07:26:07;;;;;;;18.03;12.93;;;12.80;99.90;;;;;;5094569;28;20454;-68
2021/10/31 07:28:35;;;;;;;17.00;13.43;;;12.90;99.90;;;;;;5094323;28;20973;-69
2021/10/31 07:31:04;;;;;;;19.50;14.40;;;12.90;99.90;;;;;;5094427;28;20514;-69
2021/10/31 07:33:31;;;;;;;16.23;13.20;;;13.00;99.90;;;;;;5094349;28;20463;-69
2021/10/31 07:35:58;;;;;;;21.60;14.47;;;13.10;99.90;;;;;;5094577;28;20465;-70
2021/10/31 07:38:25;;;;;;;16.90;13.43;;;13.20;99.90;;;;;;5094587;28;20457;-68
2021/10/31 07:40:52;;;;;;;16.40;13.70;;;13.30;99.90;;;;;;5094473;28;20469;-70
2021/10/31 07:43:22;;;;;;;17.10;13.23;;;13.30;99.90;;;;;;5095432;28;20545;-69
2021/10/31 07:45:50;;;;;;;16.00;12.87;;;13.40;99.90;;;;;;5094742;28;20831;-69
2021/10/31 07:48:17;;;;;;;16.10;13.10;;;13.40;99.90;;;;;;5094724;28;20489;-70
2021/10/31 07:50:43;;;;;;;15.40;12.90;;;13.50;99.90;;;;;;5094805;28;20472;-70
2021/10/31 07:53:12;;;;;;;20.87;14.17;;;13.60;99.90;;;;;;5094554;28;20461;-70
2021/10/31 07:55:41;;;;;;;16.10;13.80;;;13.60;99.90;;;;;;5094900;28;20778;-70
2021/10/31 07:58:08;;;;;;;16.50;13.10;;;13.70;99.90;;;;;;5094657;28;20454;-69
2021/10/31 08:00:36;;;;;;;15.80;11.67;;;13.80;99.90;;;;;;5094780;28;20909;-69
2021/10/31 08:03:04;;;;;;;17.60;13.67;;;13.80;99.90;;;;;;5094818;28;20465;-69
2021/10/31 08:05:31;;;;;;;16.20;13.13;;;13.80;99.90;;;;;;5094682;28;20454;-70
2021/10/31 08:07:58;;;;;;;16.17;12.07;;;13.80;99.90;;;;;;5094416;28;20527;-70
2021/10/31 08:10:25;;;;;;;16.47;12.40;;;13.90;99.90;;;;;;5094589;28;20519;-70
2021/10/31 08:12:52;;;;;;;16.43;13.37;;;14.00;99.90;;;;;;5096991;28;20454;-68
2021/10/31 08:15:19;;;;;;;16.30;12.30;;;14.00;99.90;;;;;;5094471;28;20468;-69
2021/10/31 08:17:46;;;;;;;13.77;12.30;;;14.00;99.90;;;;;;5097376;28;20485;-69
2021/10/31 08:20:14;;;;;;;16.20;13.77;;;14.10;99.90;;;;;;5097129;28;20949;-69
2021/10/31 08:22:41;;;;;;;18.27;13.10;;;14.10;99.90;;;;;;5097675;28;20536;-68
2021/10/31 08:25:09;;;;;;;17.03;12.30;;;14.20;99.90;;;;;;5097531;28;20454;-69
2021/10/31 08:27:35;;;;;;;14.60;12.43;;;14.20;99.90;;;;;;5097113;28;20477;-69
2021/10/31 08:30:03;;;;;;;14.70;12.23;;;14.20;99.90;;;;;;5097651;28;20468;-69
2021/10/31 08:32:32;;;;;;;15.20;13.10;;;14.30;99.90;;;;;;5097798;28;20803;-69
2021/10/31 08:34:59;;;;;;;15.03;13.20;;;14.40;99.90;;;;;;5097252;28;20462;-68
2021/10/31 08:37:27;;;;;;;13.50;12.10;;;14.30;99.90;;;;;;5098695;28;20453;-68
2021/10/31 08:39:53;;;;;;;15.03;12.83;;;14.40;99.90;;;;;;5098107;28;20486;-68
2021/10/31 08:42:20;;;;;;;13.37;11.97;;;14.40;99.90;;;;;;5098499;28;20454;-68
2021/10/31 08:44:47;;;;;;;16.17;12.37;;;14.40;99.90;;;;;;5100413;28;20454;-68
2021/10/31 08:47:14;;;;;;;15.93;12.23;;;14.50;99.90;;;;;;5100043;28;20458;-68
2021/10/31 08:49:40;;;;;;;16.53;12.77;;;14.50;99.90;;;;;;5099287;28;20477;-67
2021/10/31 08:52:08;;;;;;;15.20;12.43;;;14.50;99.90;;;;;;5098479;28;20457;-68
2021/10/31 08:54:37;;;;;;;13.97;12.10;;;14.50;99.90;;;;;;5098410;28;20465;-68
2021/10/31 08:57:05;;;;;;;14.70;12.37;;;14.60;99.90;;;;;;5098352;28;20465;-68
2021/10/31 08:59:32;;;;;;;15.67;12.40;;;14.60;99.90;;;;;;5097346;28;20465;-68
2021/10/31 09:01:59;;;;;;;15.23;12.70;;;14.70;99.90;;;;;;5097134;28;20917;-69
2021/10/31 09:04:26;;;;;;;14.50;13.00;;;14.70;99.90;;;;;;5097050;28;20823;-69
2021/10/31 09:06:53;;;;;;;15.90;12.70;;;14.60;99.90;;;;;;5097688;28;20458;-68
2021/10/31 09:09:19;;;;;;;13.87;11.87;;;14.60;99.90;;;;;;5097344;28;20535;-69
2021/10/31 09:11:48;;;;;;;14.17;12.70;;;14.70;99.90;;;;;;5097073;28;20515;-69
2021/10/31 09:14:15;;;;;;;15.97;12.70;;;14.70;99.90;;;;;;5096537;28;20960;-69
2021/10/31 09:16:43;;;;;;;13.70;11.67;;;14.70;99.90;;;;;;5096145;28;20454;-69
2021/10/31 09:19:10;;;;;;;14.90;12.30;;;14.80;99.90;;;;;;5096251;28;20466;-69
2021/10/31 09:21:40;;;;;;;14.67;12.67;;;14.90;99.90;;;;;;5096442;28;20457;-69
2021/10/31 09:24:07;;;;;;;14.07;12.50;;;15.00;99.90;;;;;;5096237;28;20575;-69
2021/10/31 09:26:34;;;;;;;13.93;12.43;;;15.10;99.90;;;;;;5096026;28;20555;-69
2021/10/31 09:29:05;;;;;;;17.03;13.70;;;15.20;99.90;;;;;;5096004;28;20488;-69
2021/10/31 09:31:32;;;;;;;14.73;13.13;;;15.20;99.90;;;;;;5096030;28;20499;-70
2021/10/31 09:34:00;;;;;;;16.63;13.33;;;15.10;99.90;;;;;;5096248;28;20471;-69
2021/10/31 09:36:27;;;;;;;16.80;13.53;;;15.20;99.90;;;;;;5096242;28;20470;-69
2021/10/31 09:38:54;;;;;;;13.77;12.30;;;15.30;99.90;;;;;;5096005;28;20484;-70
2021/10/31 09:41:23;;;;;;;17.03;13.77;;;15.30;99.90;;;;;;5095983;28;20518;-70
2021/10/31 09:43:53;;;;;;;14.30;12.70;;;15.30;99.90;;;;;;5095891;28;20518;-69
2021/10/31 09:46:24;;;;;;;17.53;12.43;;;15.30;99.90;;;;;;5095293;28;20492;-69
2021/10/31 09:48:50;;;;;;;15.23;13.20;;;15.40;99.90;;;;;;5095611;28;20472;-69
2021/10/31 09:51:22;;;;;;;17.50;13.37;;;15.50;99.90;;;;;;5095673;28;20464;-69
2021/10/31 09:53:49;;;;;;;15.50;12.90;;;15.60;99.90;;;;;;5095148;28;20445;-69
2021/10/31 09:56:16;;;;;;;14.50;12.93;;;15.60;99.90;;;;;;5095680;28;20485;-70
2021/10/31 09:58:44;;;;;;;15.17;13.57;;;15.70;99.90;;;;;;5095761;28;20454;-69
2021/10/31 10:01:36;;;;;;;15.80;13.03;;;15.80;99.90;;;;;;5095304;28;20500;-69
2021/10/31 10:04:03;;;;;;;14.67;12.77;;;15.90;99.90;;;;;;5095606;28;20507;-70
2021/10/31 10:06:31;;;;;;;13.80;12.30;;;16.00;99.90;;;;;;5095452;28;20480;-70
2021/10/31 10:09:01;;;;;;;14.13;12.20;;;16.00;99.90;;;;;;5094895;28;20474;-69
2021/10/31 10:11:30;;;;;;;14.07;12.57;;;16.10;99.90;;;;;;5095087;28;20460;-70
2021/10/31 10:14:12;;;;;;;16.10;13.33;;;16.20;99.90;;;;;;5095264;28;20841;-70
2021/10/31 10:16:41;;;;;;;13.93;12.20;;;16.20;99.90;;;;;;5095434;28;20442;-69
2021/10/31 10:19:16;;;;;;;18.30;12.50;;;16.20;99.90;;;;;;5094959;28;20458;-68
2021/10/31 10:21:43;;;;;;;15.00;11.73;;;16.20;99.90;;;;;;5094683;28;20472;-69
2021/10/31 10:24:11;;;;;;;14.97;12.93;;;16.30;99.90;;;;;;5095223;28;20461;-68
2021/10/31 10:26:42;;;;;;;13.90;12.13;;;16.40;99.90;;;;;;5094914;28;20453;-68
2021/10/31 10:29:15;;;;;;;13.27;11.17;;;16.50;99.90;;;;;;5095014;28;20466;-69
2021/10/31 10:31:45;;;;;;;14.87;12.10;;;16.50;99.90;;;;;;5094715;28;20914;-69
2021/10/31 10:34:13;;;;;;;14.00;11.57;;;16.60;99.90;;;;;;5095476;28;20450;-70
2021/10/31 10:36:42;;;;;;;14.83;12.20;;;16.70;99.90;;;;;;5096390;28;20469;-68
2021/10/31 10:39:11;;;;;;;15.97;11.73;;;16.90;99.90;;;;;;5094186;28;20984;-68
2021/10/31 10:41:40;;;;;;;13.83;11.70;;;17.00;99.90;;;;;;5095203;28;20460;-67
2021/10/31 10:44:19;;;;;;;11.70;10.50;;;17.10;99.90;;;;;;5094418;28;20453;-69
2021/10/31 10:46:47;;;;;;;13.60;11.30;;;17.20;99.90;;;;;;5094712;28;20453;-69
2021/10/31 10:49:17;;;;;;;13.30;10.43;;;17.20;99.90;;;;;;5094708;28;20477;-68
2021/10/31 10:51:44;;;;;;;15.83;11.50;;;17.10;99.90;;;;;;5094031;28;20454;-68
2021/10/31 10:54:11;;;;;;;12.40;11.07;;;17.10;99.90;;;;;;5094085;28;20526;-68
2021/10/31 10:56:58;;;;;;;11.47;10.20;;;17.20;99.90;;;;;;5094053;28;20454;-68
2021/10/31 10:59:24;;;;;;;10.53;9.40;;;17.30;99.90;;;;;;5094795;28;20462;-67
2021/10/31 11:02:11;;;;;;;12.80;10.67;;;17.50;99.90;;;;;;5094819;28;20786;-68
2021/10/31 11:04:39;;;;;;;13.77;11.20;;;17.50;99.90;;;;;;5094925;28;20437;-68
2021/10/31 11:07:07;;;;;;;13.03;11.73;;;17.50;99.90;;;;;;5099592;28;20789;-67
2021/10/31 11:09:39;;;;;;;13.30;9.93;;;17.60;99.90;;;;;;5100245;28;20605;-67
2021/10/31 11:12:26;;;;;;;10.00;9.00;;;17.70;99.90;;;;;;5097459;28;20785;-68
2021/10/31 11:14:53;;;;;;;11.50;9.80;;;17.80;99.90;;;;;;5097268;28;20828;-68
2021/10/31 11:17:22;;;;;;;11.70;10.07;;;17.80;99.90;;;;;;5097852;28;20484;-68
2021/10/31 11:19:50;;;;;;;11.27;10.17;;;17.70;99.90;;;;;;5096763;28;20481;-68
2021/10/31 11:22:19;;;;;;;11.17;9.97;;;17.70;99.90;;;;;;5097767;28;20468;-68
2021/10/31 11:24:47;;;;;;;9.97;8.97;;;17.70;99.90;;;;;;5096037;28;20933;-67
2021/10/31 11:27:17;;;;;;;10.70;8.17;;;17.70;99.90;;;;;;5095867;28;20453;-68
2021/10/31 11:29:45;;;;;;;10.73;9.70;;;17.70;99.90;;;;;;5095750;28;20542;-66
2021/10/31 11:32:13;;;;;;;10.80;9.70;;;17.80;99.90;;;;;;5096274;28;20940;-66
2021/10/31 11:34:46;;;;;;;11.03;9.80;;;17.90;99.90;;;;;;5096387;28;20466;-69
2021/10/31 11:37:15;;;;;;;8.70;7.90;;;18.10;99.90;;;;;;5095296;28;20936;-69
2021/10/31 11:39:43;;;;;;;9.40;8.40;;;18.40;99.90;;;;;;5094021;28;20488;-69
2021/10/31 11:42:11;;;;;;;9.87;8.83;;;18.60;99.90;;;;;;5094494;28;20464;-69
2021/10/31 11:45:06;;;;;;;10.00;9.00;;;18.70;99.90;;;;;;5093970;28;20941;-68
2021/10/31 11:47:33;;;;;;;11.60;9.97;;;19.00;99.90;;;;;;5094183;28;20453;-67
2021/10/31 11:50:07;;;;;;;10.23;9.23;;;19.80;99.90;;;;;;5094344;28;20496;-67
2021/10/31 11:53:01;;;;;;;12.67;10.10;;;20.80;99.90;;;;;;5098040;28;20452;-67
2021/10/31 11:55:58;;;;;;;11.80;10.30;;;22.00;99.90;;;;;;5098081;28;20434;-67
2021/10/31 11:58:55;;;;;;;8.80;8.00;;;22.90;99.90;;;;;;5097943;28;20509;-67
2021/10/31 12:01:36;;;;;;;10.13;8.57;;;23.80;99.90;;;;;;5097926;28;20628;-67
2021/10/31 12:04:06;;;;;;;9.77;8.77;;;24.50;1.00;;;;;;5098047;28;20925;-69
2021/10/31 12:06:56;;;;;;;8.77;7.97;;;24.90;1.00;;;;;;5098458;28;20780;-68
2021/10/31 12:09:34;;;;;;;8.80;7.90;;;25.40;1.00;;;;;;5098131;28;20492;-68
2021/10/31 12:12:22;;;;;;;8.30;7.50;;;26.40;1.00;;;;;;5097265;28;20453;-67
2021/10/31 12:14:52;;;;;;;14.50;7.80;;;26.70;1.00;;;;;;5097615;28;20521;-67
2021/10/31 12:17:21;;;;;;;8.37;7.37;;;26.80;1.00;;;;;;5097037;28;20906;-68
2021/10/31 12:19:49;;;;;;;10.03;7.73;;;27.10;1.00;;;;;;5097829;28;20807;-67
2021/10/31 12:22:19;;;;;;;6.73;6.13;;;27.50;1.00;;;;;;5097212;28;20563;-67
2021/10/31 12:24:49;;;;;;;7.10;6.50;;;27.70;1.00;;;;;;5098016;28;20479;-67
2021/10/31 12:27:18;;;;;;;8.43;7.73;;;28.20;1.00;;;;;;5097176;28;20465;-67
2021/10/31 12:29:54;;;;;;;8.73;7.07;;;28.70;1.00;;;;;;5097461;28;20473;-67
2021/10/31 12:32:23;;;;;;;8.60;7.80;;;29.00;1.00;;;;;;5096961;28;20438;-67
2021/10/31 12:34:52;;;;;;;9.93;9.00;;;29.40;1.00;;;;;;5097259;28;20457;-67
2021/10/31 12:37:25;;;;;;;10.00;9.00;;;29.70;1.00;;;;;;5097397;28;20453;-67
2021/10/31 12:39:55;;;;;;;11.40;10.30;;;30.20;1.00;;;;;;5096902;28;20492;-68